Terminal Aerodrome Forecast
Issued by NWS

Home | Current Version | Previous Version | Text Only | Print | Product List | Glossary On
Versions: 1 2 3 4 5 6 7 8 9 10 11 12 13 14 15 16 17 18 19 20 21 22 23 24 25 26 27 28 29 30 31 32 33 34 35 36 37 38 39 40 41 42 43 44 45 46 47
848
FTUS46 KEKA 271735
TAFACV
TAF
KACV 271735Z 2718/2818 30004KT 1/2SM FG OVC002
     FM271900 30006KT 3SM BR BKN003
     FM272000 30008KT 6SM BR SCT005
      TEMPO 2720/2722 BKN004
     FM280000 30005KT 1 1/2SM BR OVC003
     FM280400 15004KT 1/2SM FG OVC002=

USA.gov is the U.S. government's official web portal to all federal, state and local government web resources and services.